Time;durP1;ratioP1;P1;durP2;ratioP2;P2;SDS_P1;SDS_P2;PMS_P1;PMS_P2;Temp;Humidity;BMP_temperature;BMP_pressure;BME280_temperature;BME280_humidity;BME280_pressure;Samples;Min_cycle;Max_cycle;Signal;HPM_P1;HPM_P2
2023/05/21 00:01:09;;;;;;;6.38;3.17;;;;;;;14.01;100.00;101734.81;5068270;28;20041;-51
2023/05/21 00:03:40;;;;;;;6.93;3.20;;;;;;;14.03;100.00;101734.75;5068715;28;20136;-54
2023/05/21 00:06:09;;;;;;;7.75;3.83;;;;;;;14.05;100.00;101737.28;5068997;28;20063;-54
2023/05/21 00:08:39;;;;;;;6.82;3.50;;;;;;;14.03;100.00;101732.94;5071326;28;20063;-54
2023/05/21 00:11:09;;;;;;;4.30;2.83;;;;;;;13.96;100.00;101729.00;5051448;28;20127;-54
2023/05/21 00:13:38;;;;;;;8.15;3.08;;;;;;;13.98;100.00;101724.44;5069730;28;20402;-54
2023/05/21 00:16:07;;;;;;;7.03;3.30;;;;;;;13.97;100.00;101725.38;5071028;28;20527;-54
2023/05/21 00:18:35;;;;;;;5.82;3.10;;;;;;;13.98;100.00;101724.44;5068686;28;20117;-53
2023/05/21 00:21:03;;;;;;;8.38;3.65;;;;;;;13.95;100.00;101719.38;5050949;28;20062;-54
2023/05/21 00:23:32;;;;;;;8.52;3.45;;;;;;;14.01;100.00;101718.94;5071309;28;20412;-53
2023/05/21 00:26:02;;;;;;;6.07;3.30;;;;;;;14.01;100.00;101718.09;5068720;28;20055;-55
2023/05/21 00:28:30;;;;;;;7.25;3.63;;;;;;;14.00;100.00;101709.34;5068829;28;20048;-53
2023/05/21 00:30:58;;;;;;;8.07;3.55;;;;;;;13.95;100.00;101711.44;5069243;28;20514;-54
2023/05/21 00:33:27;;;;;;;5.65;3.28;;;;;;;13.97;100.00;101712.16;5072124;28;20492;-53
2023/05/21 00:35:56;;;;;;;6.35;3.70;;;;;;;13.96;100.00;101705.22;5069165;28;20510;-54
2023/05/21 00:38:26;;;;;;;5.65;3.22;;;;;;;13.98;100.00;101703.28;5068943;28;20055;-52
2023/05/21 00:40:54;;;;;;;6.97;3.55;;;;;;;13.98;100.00;101703.28;5070882;28;20102;-54
2023/05/21 00:43:25;;;;;;;7.03;3.47;;;;;;;14.03;100.00;101706.47;5069051;28;20051;-54
2023/05/21 00:45:55;;;;;;;7.00;3.60;;;;;;;14.02;100.00;101703.94;5067536;28;20055;-52
2023/05/21 00:48:23;;;;;;;6.30;3.50;;;;;;;14.01;100.00;101697.78;5068821;28;20040;-52
2023/05/21 00:50:52;;;;;;;6.45;3.67;;;;;;;14.04;100.00;101696.75;5068451;28;20040;-53
2023/05/21 00:53:20;;;;;;;8.57;3.70;;;;;;;14.01;100.00;101694.31;5068786;28;20041;-53
2023/05/21 00:55:50;;;;;;;8.80;4.53;;;;;;;14.00;100.00;101696.13;5069692;28;20484;-53
2023/05/21 00:58:19;;;;;;;8.05;3.50;;;;;;;14.02;100.00;101699.50;5070378;28;20071;-52
2023/05/21 01:00:48;;;;;;;7.50;3.28;;;;;;;14.00;100.00;101697.91;5067017;28;20048;-54
2023/05/21 01:03:17;;;;;;;7.38;3.80;;;;;;;14.05;100.00;101693.16;5068247;28;20037;-52
2023/05/21 01:05:47;;;;;;;7.43;3.65;;;;;;;14.04;100.00;101691.44;5069562;28;20048;-53
2023/05/21 01:08:19;;;;;;;7.88;3.67;;;;;;;14.00;100.00;101689.97;5068769;28;20050;-51
2023/05/21 01:10:48;;;;;;;7.45;3.97;;;;;;;13.96;100.00;101689.34;5068615;28;20120;-54
2023/05/21 01:13:17;;;;;;;7.30;3.92;;;;;;;13.97;100.00;101690.16;5071774;28;20063;-53
2023/05/21 01:15:45;;;;;;;6.95;3.72;;;;;;;13.98;100.00;101686.59;5075082;28;20044;-61
2023/05/21 01:18:18;;;;;;;6.68;3.60;;;;;;;13.92;100.00;101684.34;5073196;28;20135;-62
2023/05/21 01:20:48;;;;;;;7.75;4.07;;;;;;;13.89;100.00;101688.03;5055589;28;20139;-60
2023/05/21 01:23:18;;;;;;;7.47;4.05;;;;;;;13.85;100.00;101676.81;5074414;28;20440;-60
2023/05/21 01:25:47;;;;;;;7.07;3.90;;;;;;;13.91;100.00;101680.84;5054996;28;20060;-61
2023/05/21 01:28:15;;;;;;;9.95;4.25;;;;;;;13.86;100.00;101688.22;5055305;28;20058;-61
2023/05/21 01:30:43;;;;;;;7.47;4.68;;;;;;;13.84;100.00;101687.50;5053732;28;20048;-61
2023/05/21 01:33:17;;;;;;;9.27;4.63;;;;;;;13.86;100.00;101680.31;5073407;28;20119;-62
2023/05/21 01:35:54;;;;;;;9.38;4.00;;;;;;;13.88;100.00;101674.91;5075593;28;20052;-61
2023/05/21 01:38:29;;;;;;;6.97;3.90;;;;;;;13.84;100.00;101674.28;5074284;28;20041;-61
2023/05/21 01:41:02;;;;;;;8.38;3.80;;;;;;;13.82;100.00;101677.00;5072824;28;20044;-62
2023/05/21 01:43:33;;;;;;;7.38;4.22;;;;;;;13.91;100.00;101674.72;5072273;28;20056;-60
2023/05/21 01:46:07;;;;;;;7.57;4.10;;;;;;;13.88;100.00;101667.84;5071361;28;20048;-61
2023/05/21 01:48:36;;;;;;;8.50;4.43;;;;;;;13.80;100.00;101664.84;5072604;28;20399;-61
2023/05/21 01:51:06;;;;;;;8.45;4.15;;;;;;;13.83;100.00;101662.84;5072586;28;20044;-60
2023/05/21 01:53:37;;;;;;;7.88;4.38;;;;;;;13.80;100.00;101664.84;5073976;28;20045;-61
2023/05/21 01:56:06;;;;;;;8.35;4.47;;;;;;;13.77;100.00;101663.25;5072662;28;20048;-60
2023/05/21 01:58:34;;;;;;;6.82;3.97;;;;;;;13.81;100.00;101661.25;5072833;28;20053;-61
2023/05/21 02:01:03;;;;;;;7.88;4.25;;;;;;;13.82;100.00;101660.31;5071288;28;20080;-54
2023/05/21 02:03:31;;;;;;;9.05;4.40;;;;;;;13.72;100.00;101661.88;5070989;28;20048;-54
2023/05/21 02:06:00;;;;;;;8.32;4.20;;;;;;;13.69;100.00;101657.63;5052937;28;20056;-53
2023/05/21 02:08:28;;;;;;;8.00;4.65;;;;;;;13.65;100.00;101656.13;5070839;28;20048;-53
2023/05/21 02:10:58;;;;;;;8.50;4.68;;;;;;;13.61;100.00;101663.41;5070796;28;20048;-54
2023/05/21 02:13:28;;;;;;;7.63;4.23;;;;;;;13.70;100.00;101659.31;5072674;28;20102;-54
2023/05/21 02:15:56;;;;;;;8.35;4.57;;;;;;;13.64;100.00;101659.72;5069984;28;20076;-54
2023/05/21 02:18:25;;;;;;;7.72;4.38;;;;;;;13.63;100.00;101650.97;5071409;28;20053;-52
2023/05/21 02:20:53;;;;;;;7.70;4.40;;;;;;;13.60;100.00;101648.50;5073427;28;20458;-53
2023/05/21 02:23:21;;;;;;;9.00;4.22;;;;;;;13.64;100.00;101652.63;5069854;28;20048;-52
2023/05/21 02:25:49;;;;;;;8.65;4.82;;;;;;;13.64;100.00;101647.34;5070995;28;20040;-53
2023/05/21 02:28:20;;;;;;;7.70;4.70;;;;;;;13.55;100.00;101644.47;5071093;28;20048;-54
2023/05/21 02:30:48;;;;;;;8.52;4.35;;;;;;;13.60;100.00;101651.13;5069116;28;20040;-53
2023/05/21 02:33:16;;;;;;;9.52;4.93;;;;;;;13.58;100.00;101642.47;5053533;28;20143;-54
2023/05/21 02:35:45;;;;;;;9.02;5.10;;;;;;;13.51;100.00;101649.09;5071536;28;20153;-54
2023/05/21 02:38:18;;;;;;;8.95;4.85;;;;;;;13.50;100.00;101645.59;5073911;28;20040;-52
2023/05/21 02:40:46;;;;;;;8.18;4.53;;;;;;;13.53;100.00;101645.41;5073857;28;20066;-53
2023/05/21 02:43:14;;;;;;;6.95;4.28;;;;;;;13.55;100.00;101644.47;5071146;28;20055;-53
2023/05/21 02:45:44;;;;;;;8.10;4.40;;;;;;;13.48;100.00;101649.28;5069581;28;20076;-50
2023/05/21 02:48:13;;;;;;;10.27;5.20;;;;;;;13.47;100.00;101644.94;5073726;28;20052;-53
2023/05/21 02:50:41;;;;;;;8.45;4.28;;;;;;;13.59;100.00;101646.78;5071792;28;20048;-53
2023/05/21 02:53:09;;;;;;;8.70;4.60;;;;;;;13.51;100.00;101642.03;5070697;28;20392;-55
2023/05/21 02:55:37;;;;;;;7.53;4.68;;;;;;;13.44;100.00;101639.88;5054550;28;20052;-55
2023/05/21 02:58:05;;;;;;;9.25;5.35;;;;;;;13.40;100.00;101643.66;5073544;28;20407;-52
2023/05/21 03:00:34;;;;;;;10.73;4.80;;;;;;;13.40;100.00;101641.00;5073304;28;20150;-55
2023/05/21 03:03:03;;;;;;;7.95;4.78;;;;;;;13.48;100.00;101641.38;5073296;28;20037;-53
2023/05/21 03:05:32;;;;;;;8.40;4.90;;;;;;;13.43;100.00;101644.31;5073342;28;20076;-50
2023/05/21 03:08:00;;;;;;;9.98;5.05;;;;;;;13.43;100.00;101646.97;5071320;28;20131;-60
2023/05/21 03:10:28;;;;;;;9.13;5.35;;;;;;;13.36;100.00;101643.00;5070438;28;20041;-61
2023/05/21 03:12:56;;;;;;;8.40;4.82;;;;;;;13.34;100.00;101636.94;5072255;28;20067;-51
2023/05/21 03:15:24;;;;;;;9.20;5.05;;;;;;;13.38;100.00;101645.56;5068277;28;20093;-53
2023/05/21 03:17:54;;;;;;;9.00;5.07;;;;;;;13.38;100.00;101637.63;5070163;28;20067;-53
2023/05/21 03:20:23;;;;;;;10.18;5.35;;;;;;;13.37;100.00;101628.00;5069702;28;20136;-53
2023/05/21 03:22:53;;;;;;;8.23;4.85;;;;;;;13.37;100.00;101628.84;5070151;28;20079;-53
2023/05/21 03:25:23;;;;;;;8.13;4.82;;;;;;;13.39;100.00;101628.75;5070009;28;20067;-52
2023/05/21 03:27:52;;;;;;;9.95;5.00;;;;;;;13.38;100.00;101633.19;5051810;28;20060;-53
2023/05/21 03:30:20;;;;;;;9.60;5.30;;;;;;;13.37;100.00;101636.78;5068031;28;20045;-54
2023/05/21 03:32:50;;;;;;;11.52;5.60;;;;;;;13.42;100.00;101625.91;5070316;28;20123;-53
2023/05/21 03:35:18;;;;;;;10.32;5.32;;;;;;;13.40;100.00;101627.81;5069195;28;20044;-54
2023/05/21 03:37:48;;;;;;;8.70;5.40;;;;;;;13.33;100.00;101629.97;5069959;28;20040;-52
2023/05/21 03:40:16;;;;;;;10.05;5.57;;;;;;;13.30;100.00;101628.34;5072907;28;20507;-60
2023/05/21 03:42:44;;;;;;;10.40;5.70;;;;;;;13.30;100.00;101617.78;5072784;28;20579;-61
2023/05/21 03:45:12;;;;;;;9.77;5.18;;;;;;;13.28;100.00;101626.75;5052578;28;20087;-60
2023/05/21 03:47:41;;;;;;;11.13;6.00;;;;;;;13.28;100.00;101630.25;5070036;28;20044;-61
2023/05/21 03:50:11;;;;;;;9.38;5.65;;;;;;;13.28;100.00;101626.75;5069896;28;20053;-60
2023/05/21 03:52:39;;;;;;;8.98;5.47;;;;;;;13.24;100.00;101626.13;5070001;28;20044;-59
2023/05/21 03:55:09;;;;;;;9.45;5.32;;;;;;;13.24;100.00;101623.47;5070230;28;20040;-60
2023/05/21 03:57:38;;;;;;;9.85;5.47;;;;;;;13.21;100.00;101623.69;5069859;28;20446;-61
2023/05/21 04:00:07;;;;;;;8.45;5.22;;;;;;;13.18;100.00;101631.78;5068883;28;20159;-60
2023/05/21 04:02:36;;;;;;;8.63;5.45;;;;;;;13.23;100.00;101632.34;5070271;28;20060;-60
2023/05/21 04:05:05;;;;;;;10.10;6.10;;;;;;;13.20;100.00;101627.28;5070428;28;20052;-60
2023/05/21 04:07:37;;;;;;;9.70;5.07;;;;;;;13.22;100.00;101628.00;5070088;28;20086;-60
2023/05/21 04:10:06;;;;;;;9.15;5.18;;;;;;;13.21;100.00;101633.38;5052435;28;20056;-60
2023/05/21 04:12:36;;;;;;;9.18;5.68;;;;;;;13.16;100.00;101631.06;5069364;28;20051;-53
2023/05/21 04:15:05;;;;;;;9.65;5.88;;;;;;;13.17;100.00;101632.72;5050049;28;20519;-52
2023/05/21 04:17:33;;;;;;;9.40;5.60;;;;;;;13.16;100.00;101631.88;5069051;28;20036;-52
2023/05/21 04:20:01;;;;;;;8.65;5.25;;;;;;;13.17;100.00;101636.22;5069395;28;20052;-52
2023/05/21 04:22:29;;;;;;;10.00;5.57;;;;;;;13.11;100.00;101633.97;5068894;28;20056;-54
2023/05/21 04:24:58;;;;;;;9.68;5.53;;;;;;;13.18;100.00;101645.00;5051131;28;20059;-53
2023/05/21 04:27:26;;;;;;;10.35;6.13;;;;;;;13.16;100.00;101646.91;5068798;28;20059;-53
2023/05/21 04:29:56;;;;;;;9.50;5.85;;;;;;;13.21;100.00;101643.94;5067715;28;20106;-53
2023/05/21 04:32:25;;;;;;;10.05;6.20;;;;;;;13.17;100.00;101641.50;5068811;28;20052;-54
2023/05/21 04:34:53;;;;;;;10.27;5.65;;;;;;;13.18;100.00;101645.84;5069146;28;20044;-60
2023/05/21 04:37:23;;;;;;;9.85;6.45;;;;;;;13.13;100.00;101647.06;5069652;28;20056;-61
2023/05/21 04:39:52;;;;;;;10.02;6.00;;;;;;;13.10;100.00;101642.84;5069882;28;20051;-61
2023/05/21 04:42:22;;;;;;;11.65;6.30;;;;;;;13.08;100.00;101644.72;5069497;28;20149;-54
2023/05/21 04:44:51;;;;;;;9.73;6.07;;;;;;;13.10;100.00;101642.84;5067628;28;20048;-54
2023/05/21 04:47:23;;;;;;;9.77;6.38;;;;;;;13.10;100.00;101645.50;5072856;28;20040;-55
2023/05/21 04:49:53;;;;;;;9.52;6.65;;;;;;;13.06;100.00;101645.78;5076146;28;20036;-61
2023/05/21 04:52:23;;;;;;;9.73;6.10;;;;;;;13.08;100.00;101644.72;5075820;28;20402;-61
2023/05/21 04:54:54;;;;;;;9.77;6.50;;;;;;;13.12;100.00;101643.59;5073393;28;20071;-60
2023/05/21 04:57:23;;;;;;;11.57;6.10;;;;;;;13.11;100.00;101643.69;5033277;28;20061;-61
2023/05/21 04:59:51;;;;;;;9.38;5.80;;;;;;;13.15;100.00;101639.91;5031986;28;20057;-60
2023/05/21 05:02:19;;;;;;;10.55;6.55;;;;;;;13.14;100.00;101644.34;5032972;28;20050;-60
2023/05/21 05:04:49;;;;;;;10.73;6.35;;;;;;;13.15;100.00;101648.66;5033196;28;20508;-60
2023/05/21 05:07:20;;;;;;;9.95;6.43;;;;;;;13.19;100.00;101641.41;5034306;28;20045;-60
2023/05/21 05:09:48;;;;;;;10.02;6.00;;;;;;;13.14;100.00;101644.34;5032739;28;20056;-61
2023/05/21 05:12:16;;;;;;;13.45;6.50;;;;;;;13.21;100.00;101639.53;5034631;28;20056;-60
2023/05/21 05:14:45;;;;;;;11.05;6.18;;;;;;;13.18;100.00;101634.44;5032523;28;20845;-60
2023/05/21 05:17:14;;;;;;;9.88;6.10;;;;;;;13.25;100.00;101641.03;5032050;28;20139;-61
2023/05/21 05:19:42;;;;;;;9.77;6.43;;;;;;;13.31;100.00;101643.25;5033183;28;20077;-60
2023/05/21 05:22:12;;;;;;;9.30;6.55;;;;;;;13.27;100.00;101639.13;5033334;28;20060;-61
2023/05/21 05:24:40;;;;;;;9.52;6.43;;;;;;;13.28;100.00;101643.47;5035508;28;20049;-61
2023/05/21 05:27:08;;;;;;;9.75;6.35;;;;;;;13.30;100.00;101640.72;5033783;28;20131;-62
2023/05/21 05:29:36;;;;;;;11.10;6.78;;;;;;;13.34;100.00;101643.06;5030557;28;20598;-61
2023/05/21 05:32:05;;;;;;;9.48;6.32;;;;;;;13.45;100.00;101636.28;5032639;28;20037;-61
2023/05/21 05:34:34;;;;;;;10.80;6.07;;;;;;;13.51;100.00;101633.22;5032263;28;20046;-60
2023/05/21 05:37:03;;;;;;;10.88;6.10;;;;;;;13.48;100.00;101631.66;5033114;28;20136;-60
2023/05/21 05:39:32;;;;;;;10.27;6.53;;;;;;;13.49;100.00;101635.13;5030985;28;20064;-60
2023/05/21 05:42:00;;;;;;;12.00;6.60;;;;;;;13.57;100.00;101640.78;5032857;28;20057;-60
2023/05/21 05:44:29;;;;;;;9.80;6.20;;;;;;;13.63;100.00;101640.38;5033189;28;20481;-61
2023/05/21 05:46:57;;;;;;;8.95;6.03;;;;;;;13.62;100.00;101637.81;5033102;28;20049;-60
2023/05/21 05:49:25;;;;;;;11.35;6.70;;;;;;;13.65;100.00;101637.63;5032166;28;20072;-60
2023/05/21 05:51:53;;;;;;;10.55;6.30;;;;;;;13.66;100.00;101629.59;5033060;28;20048;-60
2023/05/21 05:54:21;;;;;;;11.43;7.03;;;;;;;13.67;100.00;101630.44;5033563;28;20057;-60
2023/05/21 05:56:51;;;;;;;9.57;6.60;;;;;;;13.72;100.00;101622.22;5066478;28;20127;-54
2023/05/21 05:59:22;;;;;;;10.95;6.65;;;;;;;13.77;100.00;101628.03;5074558;28;20119;-61
2023/05/21 06:01:50;;;;;;;10.88;6.60;;;;;;;13.83;100.00;101636.41;5074755;28;20051;-62
2023/05/21 06:04:18;;;;;;;9.43;5.97;;;;;;;13.88;100.00;101636.13;5073339;28;20517;-61
2023/05/21 06:06:47;;;;;;;12.00;7.40;;;;;;;13.87;100.00;101637.06;5071555;28;20048;-62
2023/05/21 06:09:15;;;;;;;10.48;6.82;;;;;;;14.01;100.00;101639.59;5072199;28;20479;-61
2023/05/21 06:11:43;;;;;;;10.80;6.95;;;;;;;14.11;100.00;101633.72;5071545;28;20082;-61
2023/05/21 06:14:13;;;;;;;9.85;6.82;;;;;;;14.11;100.00;101631.06;5071678;28;20063;-61
2023/05/21 06:16:41;;;;;;;10.57;6.70;;;;;;;14.16;100.00;101632.44;5071596;28;20383;-61
2023/05/21 06:19:09;;;;;;;11.95;6.72;;;;;;;14.19;100.00;101626.97;5072879;28;20377;-61
2023/05/21 06:21:37;;;;;;;11.38;6.18;;;;;;;14.29;100.00;101636.88;5071374;28;20048;-61
2023/05/21 06:24:06;;;;;;;10.50;6.75;;;;;;;14.41;100.00;101635.22;5073945;28;20392;-64
2023/05/21 06:26:34;;;;;;;9.27;5.90;;;;;;;14.54;100.00;101636.06;5071312;28;20041;-61
2023/05/21 06:29:03;;;;;;;10.43;6.47;;;;;;;14.62;100.00;101632.91;5053335;28;20082;-62
2023/05/21 06:31:33;;;;;;;9.43;6.43;;;;;;;14.75;100.00;101635.53;5070600;28;20044;-61
2023/05/21 06:34:01;;;;;;;10.60;6.15;;;;;;;14.87;100.00;101632.03;5071485;28;20090;-61
2023/05/21 06:36:31;;;;;;;9.90;6.80;;;;;;;14.97;100.00;101646.31;5070919;28;20049;-61
2023/05/21 06:38:59;;;;;;;10.10;6.05;;;;;;;15.08;100.00;101634.97;5071976;28;20439;-62
2023/05/21 06:41:28;;;;;;;10.18;6.57;;;;;;;15.20;100.00;101644.69;5052781;28;20048;-63
2023/05/21 06:43:58;;;;;;;11.70;6.35;;;;;;;15.27;100.00;101639.78;5070533;28;20124;-62
2023/05/21 06:46:26;;;;;;;10.95;6.40;;;;;;;15.43;100.00;101634.19;5069982;28;20044;-61
2023/05/21 06:48:56;;;;;;;10.82;6.32;;;;;;;15.55;100.00;101630.63;5070674;28;20079;-61
2023/05/21 06:51:24;;;;;;;11.27;6.68;;;;;;;15.69;100.00;101634.94;5072749;28;20051;-61
2023/05/21 06:53:53;;;;;;;10.85;6.15;;;;;;;15.88;100.00;101633.56;5071048;28;20076;-60
2023/05/21 06:56:21;;;;;;;9.13;6.47;;;;;;;15.90;100.00;101626.38;5070211;28;20508;-55
2023/05/21 06:58:49;;;;;;;11.63;6.57;;;;;;;16.01;100.00;101628.19;5070781;28;20495;-62
2023/05/21 07:01:18;;;;;;;9.32;6.30;;;;;;;16.12;100.00;101625.56;5070113;28;20553;-61
2023/05/21 07:03:48;;;;;;;12.10;7.00;;;;;;;16.29;100.00;101626.94;5072786;28;20453;-63
2023/05/21 07:06:18;;;;;;;12.30;6.65;;;;;;;16.46;100.00;101625.63;5072655;28;20551;-62
2023/05/21 07:08:48;;;;;;;9.13;6.50;;;;;;;16.55;100.00;101621.38;5070563;28;20068;-61
2023/05/21 07:11:16;;;;;;;10.98;5.93;;;;;;;16.83;100.00;101608.59;5051869;28;20147;-62
2023/05/21 07:13:44;;;;;;;10.27;6.25;;;;;;;16.98;100.00;101607.41;5070901;28;20134;-63
2023/05/21 07:16:12;;;;;;;11.07;6.43;;;;;;;16.97;100.00;101603.03;5069898;28;20086;-55
2023/05/21 07:18:41;;;;;;;11.80;6.72;;;;;;;17.04;100.00;101606.91;5052334;28;20067;-62
2023/05/21 07:21:09;;;;;;;10.05;5.82;;;;;;;17.16;100.00;101607.72;5069649;28;20251;-62
2023/05/21 07:23:39;;;;;;;9.70;6.10;;;;;;;17.29;100.00;101609.38;5069929;28;20045;-56
2023/05/21 07:26:07;;;;;;;10.32;5.78;;;;;;;17.30;100.00;101603.97;5069914;28;20048;-54
2023/05/21 07:28:35;;;;;;;9.63;6.40;;;;;;;17.25;100.00;101600.84;5071953;28;20047;-53
2023/05/21 07:31:07;;;;;;;11.90;6.55;;;;;;;17.39;100.00;101603.19;5068379;28;20044;-63
2023/05/21 07:33:35;;;;;;;12.57;6.82;;;;;;;17.32;100.00;101609.97;5070368;28;20070;-61
2023/05/21 07:36:03;;;;;;;10.90;6.53;;;;;;;17.39;100.00;101600.53;5070484;28;20044;-62
2023/05/21 07:38:32;;;;;;;10.65;6.13;;;;;;;17.57;100.00;101597.31;5071531;28;20044;-56
2023/05/21 07:41:05;;;;;;;10.50;6.25;;;;;;;17.77;100.00;101602.81;5072597;28;20094;-56
2023/05/21 07:43:33;;;;;;;10.55;6.60;;;;;;;17.83;100.00;101605.81;5069203;28;20128;-63
2023/05/21 07:46:01;;;;;;;10.77;6.30;;;;;;;17.77;100.00;101603.66;5068678;28;20048;-62
2023/05/21 07:48:29;;;;;;;10.32;5.80;;;;;;;17.88;100.00;101605.41;5070118;28;20051;-64
2023/05/21 07:51:00;;;;;;;12.60;6.97;;;;;;;18.06;100.00;101609.22;5072564;28;20214;-62
2023/05/21 07:53:31;;;;;;;10.27;6.50;;;;;;;18.19;100.00;101601.00;5054360;28;20044;-61
2023/05/21 07:56:01;;;;;;;12.10;6.35;;;;;;;18.39;100.00;101588.66;5069938;28;20118;-61
2023/05/21 07:58:31;;;;;;;10.63;6.47;;;;;;;18.52;100.00;101591.06;5069522;28;20159;-62
2023/05/21 08:00:59;;;;;;;9.98;6.00;;;;;;;18.76;100.00;101584.59;5068430;28;20094;-62
2023/05/21 08:03:29;;;;;;;10.20;6.43;;;;;;;18.77;100.00;101583.59;5068980;28;20048;-63
2023/05/21 08:05:59;;;;;;;12.88;6.85;;;;;;;18.86;100.00;101587.28;5069635;28;20055;-62
2023/05/21 08:08:27;;;;;;;10.25;6.43;;;;;;;19.14;100.00;101590.16;5050773;28;20059;-55
2023/05/21 08:10:55;;;;;;;10.38;6.57;;;;;;;19.24;100.00;101585.69;5070239;28;20037;-53
2023/05/21 08:13:24;;;;;;;10.25;6.90;;;;;;;19.38;100.00;101582.59;5072467;28;20060;-53
2023/05/21 08:15:54;;;;;;;10.75;7.07;;;;;;;19.39;100.00;101576.28;5072255;28;20094;-55
2023/05/21 08:18:22;;;;;;;10.68;6.60;;;;;;;19.61;100.00;101587.66;5071995;28;20119;-54
2023/05/21 08:20:50;;;;;;;9.10;6.20;;;;;;;19.73;100.00;101578.50;5068658;28;20048;-55
2023/05/21 08:23:19;;;;;;;10.52;6.35;;;;;;;19.92;100.00;101574.19;5068960;28;20257;-55
2023/05/21 08:25:47;;;;;;;10.85;6.57;;;;;;;19.93;100.00;101578.50;5071191;28;20048;-55
2023/05/21 08:28:15;;;;;;;11.45;6.25;;;;;;;20.22;100.00;101582.91;5069295;28;20053;-55
2023/05/21 08:30:43;;;;;;;10.68;6.43;;;;;;;20.26;100.00;101579.84;5067803;28;20036;-55
2023/05/21 08:33:13;;;;;;;11.57;6.85;;;;;;;20.30;100.00;101579.53;5069155;28;20048;-55
2023/05/21 08:35:44;;;;;;;11.63;7.25;;;;;;;20.18;100.00;101579.72;5068991;28;20681;-55
2023/05/21 08:38:12;;;;;;;14.32;7.75;;;;;;;20.03;100.00;101589.19;5071026;28;20521;-54
2023/05/21 08:40:41;;;;;;;12.88;7.32;;;;;;;20.14;100.00;101578.31;5068802;28;20047;-56
2023/05/21 08:43:12;;;;;;;13.05;7.82;;;;;;;20.23;100.00;101577.47;5068964;28;20127;-56
2023/05/21 08:45:44;;;;;;;11.25;7.32;;;;;;;20.51;100.00;101580.16;5070925;28;20036;-56
2023/05/21 08:48:16;;;;;;;11.65;7.70;;;;;;;20.57;100.00;101578.72;5072199;28;20479;-56
2023/05/21 08:50:45;;;;;;;12.10;8.13;;;;;;;20.75;100.00;101579.66;5071992;28;20118;-54
2023/05/21 08:53:14;;;;;;;12.48;7.72;;;;;;;20.88;100.00;101578.44;5070450;28;20485;-56
2023/05/21 08:55:56;;;;;;;9.63;7.03;;;;;;;21.19;98.63;101584.28;5068273;28;20072;-55
2023/05/21 08:58:25;;;;;;;11.77;7.78;;;;;;;21.18;98.11;101582.59;5068548;28;20063;-56
2023/05/21 09:00:54;;;;;;;13.63;7.53;;;;;;;21.36;97.20;101574.56;5066639;28;20045;-57
2023/05/21 09:03:24;;;;;;;11.00;7.10;;;;;;;21.44;94.02;101581.84;5068668;28;20068;-56
2023/05/21 09:05:53;;;;;;;14.73;7.95;;;;;;;21.45;94.80;101579.00;5068340;28;20043;-56
2023/05/21 09:08:29;;;;;;;12.68;7.97;;;;;;;21.56;94.11;101577.97;5052520;28;20052;-55
2023/05/21 09:10:57;;;;;;;12.05;7.85;;;;;;;21.60;93.36;101573.16;5071133;28;20047;-56
2023/05/21 09:13:28;;;;;;;12.70;8.05;;;;;;;21.52;94.06;101573.88;5068161;28;20055;-56
2023/05/21 09:15:57;;;;;;;14.52;8.32;;;;;;;21.66;93.03;101566.34;5067143;28;20040;-57
2023/05/21 09:18:27;;;;;;;11.15;8.18;;;;;;;21.86;92.87;101567.81;5068785;28;20059;-56
2023/05/21 09:20:56;;;;;;;12.20;8.25;;;;;;;22.00;91.27;101571.75;5071480;28;20039;-56
2023/05/21 09:23:24;;;;;;;11.07;8.32;;;;;;;21.92;90.92;101566.34;5071633;28;20091;-57
2023/05/21 09:25:52;;;;;;;12.57;8.68;;;;;;;21.89;89.88;101572.84;5071881;28;20051;-57
2023/05/21 09:28:20;;;;;;;12.05;8.73;;;;;;;21.95;89.07;101566.03;5071814;28;20525;-57
2023/05/21 09:30:52;;;;;;;11.55;7.82;;;;;;;22.11;90.84;101562.63;5071657;28;20090;-57
2023/05/21 09:33:29;;;;;;;11.50;8.60;;;;;;;22.36;89.60;101550.25;5073552;28;20041;-57
2023/05/21 09:35:57;;;;;;;14.32;8.63;;;;;;;22.61;89.11;101558.38;5056866;28;20152;-57
2023/05/21 09:38:26;;;;;;;12.02;8.77;;;;;;;22.64;89.70;101551.84;5075010;28;20083;-57
2023/05/21 09:40:56;;;;;;;13.23;8.95;;;;;;;22.61;87.03;101561.06;5073398;28;20076;-57
2023/05/21 09:43:25;;;;;;;15.00;9.05;;;;;;;22.69;87.86;101558.41;5071250;28;20047;-57
2023/05/21 09:45:54;;;;;;;12.40;8.73;;;;;;;22.62;88.04;101560.06;5070295;28;20086;-57
2023/05/21 09:48:36;;;;;;;11.98;8.50;;;;;;;22.80;86.58;101538.50;5073728;28;20435;-57
2023/05/21 09:51:12;;;;;;;15.00;9.23;;;;;;;23.01;87.03;101547.91;5070980;28;20572;-57
2023/05/21 09:53:45;;;;;;;12.93;8.88;;;;;;;23.19;86.81;101547.78;5071547;28;20552;-57
2023/05/21 09:56:13;;;;;;;14.25;9.27;;;;;;;23.17;84.69;101555.19;5073089;28;20060;-57
2023/05/21 09:58:44;;;;;;;13.80;9.43;;;;;;;23.01;85.05;101553.28;5074426;28;20044;-57
2023/05/21 10:01:13;;;;;;;14.25;10.68;;;;;;;23.29;82.83;101543.13;5073864;28;20053;-57
2023/05/21 10:03:45;;;;;;;12.75;9.80;;;;;;;23.32;83.52;101548.16;5070914;28;20056;-56
2023/05/21 10:06:19;;;;;;;12.75;9.02;;;;;;;23.40;83.56;101539.28;5070381;28;20098;-57
2023/05/21 10:08:51;;;;;;;13.93;9.52;;;;;;;23.23;84.73;101536.59;5071188;28;20519;-56
2023/05/21 10:11:23;;;;;;;13.50;9.63;;;;;;;23.55;83.32;101545.63;5070802;28;20048;-57
2023/05/21 10:13:57;;;;;;;13.45;10.48;;;;;;;23.62;81.68;101540.41;5072799;28;20051;-56
2023/05/21 10:16:25;;;;;;;14.07;10.55;;;;;;;23.57;81.54;101537.41;5069247;28;20056;-56
2023/05/21 10:18:59;;;;;;;13.93;9.75;;;;;;;23.64;82.54;101533.03;5071182;28;20052;-56
2023/05/21 10:21:28;;;;;;;16.45;10.18;;;;;;;23.58;83.03;101539.09;5073272;28;20547;-56
2023/05/21 10:23:57;;;;;;;15.07;9.90;;;;;;;24.01;80.91;101528.13;5073378;28;20044;-56
2023/05/21 10:26:26;;;;;;;14.43;10.60;;;;;;;24.08;79.74;101532.63;5070821;28;20531;-57
2023/05/21 10:28:58;;;;;;;13.07;9.52;;;;;;;24.22;80.46;101522.19;5071775;28;20105;-57
2023/05/21 10:31:26;;;;;;;13.93;9.73;;;;;;;24.38;78.23;101522.13;5069058;28;20063;-56
2023/05/21 10:33:55;;;;;;;11.80;8.85;;;;;;;24.46;79.91;101530.13;5071206;28;20040;-65
2023/05/21 10:36:26;;;;;;;12.88;9.93;;;;;;;24.75;76.51;101523.28;5070353;28;20041;-64
2023/05/21 10:38:55;;;;;;;13.13;10.35;;;;;;;25.02;74.36;101523.81;5070523;28;20056;-66
2023/05/21 10:41:25;;;;;;;12.85;10.15;;;;;;;24.89;75.87;101519.00;5070320;28;20055;-64
2023/05/21 10:44:10;;;;;;;14.45;10.38;;;;;;;24.77;76.39;101515.03;5070604;28;20036;-56
2023/05/21 10:47:05;;;;;;;13.50;9.75;;;;;;;25.08;76.76;101511.47;5071843;28;20098;-59
2023/05/21 10:50:03;;;;;;;15.02;10.43;;;;;;;24.98;74.99;101509.84;5070311;28;20055;-58
2023/05/21 10:52:50;;;;;;;14.27;10.63;;;;;;;24.90;73.58;101509.09;5070164;28;20064;-57
2023/05/21 10:55:32;;;;;;;13.90;10.13;;;;;;;24.94;75.58;101505.84;5069888;28;20044;-57
2023/05/21 10:58:31;;;;;;;14.63;10.48;;;;;;;25.00;73.49;101509.69;5073278;28;20516;-57
2023/05/21 11:01:01;;;;;;;13.02;10.40;;;;;;;25.09;74.12;101508.59;5073443;28;20122;-57
2023/05/21 11:03:31;;;;;;;14.88;11.07;;;;;;;25.29;74.30;101508.94;5073527;28;20059;-57
2023/05/21 11:06:05;;;;;;;13.52;10.20;;;;;;;25.71;72.96;101512.09;5073808;28;20049;-57
2023/05/21 11:08:36;;;;;;;14.82;11.13;;;;;;;25.57;72.42;101505.69;5073066;28;20045;-56
2023/05/21 11:11:04;;;;;;;15.25;10.73;;;;;;;25.50;70.97;101507.44;5071745;28;20439;-56
2023/05/21 11:13:47;;;;;;;13.50;10.70;;;;;;;25.80;71.57;101504.78;5069477;28;20053;-57
2023/05/21 11:16:16;;;;;;;14.95;10.93;;;;;;;26.24;70.62;101501.25;5068838;28;20059;-57
2023/05/21 11:18:57;;;;;;;14.20;10.13;;;;;;;26.29;69.15;101495.31;5051999;28;20105;-57
2023/05/21 11:21:30;;;;;;;12.95;10.30;;;;;;;26.44;68.62;101489.91;5069044;28;20541;-57
2023/05/21 11:24:09;;;;;;;13.50;10.73;;;;;;;26.50;69.72;101483.72;5070029;28;20048;-58
2023/05/21 11:27:07;;;;;;;13.70;9.70;;;;;;;26.80;69.34;101484.50;5069903;28;20050;-57